sensor_id;sensor_type;location;lat;lon;timestamp;pressure;altitude;pressure_sealevel;temperature;humidity
65190;BME280;51777;53.570;9.984;2022-11-15T00:02:02;100895.09;;;6.64;100.00
65190;BME280;51777;53.570;9.984;2022-11-15T00:04:29;100886.69;;;6.62;100.00
65190;BME280;51777;53.570;9.984;2022-11-15T00:06:55;100888.56;;;6.60;100.00
65190;BME280;51777;53.570;9.984;2022-11-15T00:09:20;100892.06;;;6.59;100.00
65190;BME280;51777;53.570;9.984;2022-11-15T00:11:45;100890.53;;;6.56;100.00
65190;BME280;51777;53.570;9.984;2022-11-15T00:14:11;100886.31;;;6.55;100.00
65190;BME280;51777;53.570;9.984;2022-11-15T00:16:36;100894.13;;;6.54;100.00
65190;BME280;51777;53.570;9.984;2022-11-15T00:19:02;100898.22;;;6.56;100.00
65190;BME280;51777;53.570;9.984;2022-11-15T00:21:27;100891.13;;;6.60;100.00
65190;BME280;51777;53.570;9.984;2022-11-15T00:23:52;100891.59;;;6.65;100.00
65190;BME280;51777;53.570;9.984;2022-11-15T00:26:18;100894.50;;;6.71;100.00
65190;BME280;51777;53.570;9.984;2022-11-15T00:28:43;100889.25;;;6.73;100.00
65190;BME280;51777;53.570;9.984;2022-11-15T00:31:12;100893.69;;;6.71;100.00
65190;BME280;51777;53.570;9.984;2022-11-15T00:33:37;100896.47;;;6.68;100.00
65190;BME280;51777;53.570;9.984;2022-11-15T00:36:07;100899.88;;;6.68;100.00
65190;BME280;51777;53.570;9.984;2022-11-15T00:38:38;100894.84;;;6.67;100.00
65190;BME280;51777;53.570;9.984;2022-11-15T00:41:05;100885.63;;;6.64;100.00
65190;BME280;51777;53.570;9.984;2022-11-15T00:43:32;100893.47;;;6.63;100.00
65190;BME280;51777;53.570;9.984;2022-11-15T00:45:58;100889.25;;;6.62;100.00
65190;BME280;51777;53.570;9.984;2022-11-15T00:48:23;100883.63;;;6.57;100.00
65190;BME280;51777;53.570;9.984;2022-11-15T00:50:49;100888.75;;;6.57;100.00
65190;BME280;51777;53.570;9.984;2022-11-15T00:53:15;100892.38;;;6.54;100.00
65190;BME280;51777;53.570;9.984;2022-11-15T00:55:41;100890.63;;;6.55;100.00
65190;BME280;51777;53.570;9.984;2022-11-15T00:58:07;100890.53;;;6.56;100.00
65190;BME280;51777;53.570;9.984;2022-11-15T01:00:32;100895.31;;;6.61;100.00
65190;BME280;51777;53.570;9.984;2022-11-15T01:02:57;100893.56;;;6.61;100.00
65190;BME280;51777;53.570;9.984;2022-11-15T01:05:23;100889.38;;;6.60;100.00
65190;BME280;51777;53.570;9.984;2022-11-15T01:07:52;100880.47;;;6.53;100.00
65190;BME280;51777;53.570;9.984;2022-11-15T01:10:18;100888.44;;;6.50;100.00
65190;BME280;51777;53.570;9.984;2022-11-15T01:12:44;100887.84;;;6.46;100.00
65190;BME280;51777;53.570;9.984;2022-11-15T01:15:09;100888.06;;;6.43;100.00
65190;BME280;51777;53.570;9.984;2022-11-15T01:17:35;100876.38;;;6.39;100.00
65190;BME280;51777;53.570;9.984;2022-11-15T01:20:00;100872.53;;;6.34;100.00
65190;BME280;51777;53.570;9.984;2022-11-15T01:22:26;100873.56;;;6.31;100.00
65190;BME280;51777;53.570;9.984;2022-11-15T01:24:51;100875.44;;;6.29;100.00
65190;BME280;51777;53.570;9.984;2022-11-15T01:27:17;100875.56;;;6.28;100.00
65190;BME280;51777;53.570;9.984;2022-11-15T01:29:43;100872.53;;;6.23;100.00
65190;BME280;51777;53.570;9.984;2022-11-15T01:32:08;100871.72;;;6.22;100.00
65190;BME280;51777;53.570;9.984;2022-11-15T01:34:34;100887.31;;;6.19;100.00
65190;BME280;51777;53.570;9.984;2022-11-15T01:36:59;100867.94;;;6.15;100.00
65190;BME280;51777;53.570;9.984;2022-11-15T01:39:24;100867.13;;;6.14;100.00
65190;BME280;51777;53.570;9.984;2022-11-15T01:41:50;100867.38;;;6.11;100.00
65190;BME280;51777;53.570;9.984;2022-11-15T01:47:01;100853.22;;;6.06;100.00
65190;BME280;51777;53.570;9.984;2022-11-15T01:49:30;100852.50;;;6.04;100.00
65190;BME280;51777;53.570;9.984;2022-11-15T01:51:58;100862.09;;;6.02;100.00
65190;BME280;51777;53.570;9.984;2022-11-15T01:54:25;100861.25;;;6.01;100.00
65190;BME280;51777;53.570;9.984;2022-11-15T01:56:54;100854.50;;;6.00;100.00
65190;BME280;51777;53.570;9.984;2022-11-15T01:59:20;100846.69;;;6.02;100.00
65190;BME280;51777;53.570;9.984;2022-11-15T02:01:46;100843.19;;;6.03;100.00
65190;BME280;51777;53.570;9.984;2022-11-15T02:04:41;100835.47;;;6.03;100.00
65190;BME280;51777;53.570;9.984;2022-11-15T02:07:08;100828.28;;;6.08;100.00
65190;BME280;51777;53.570;9.984;2022-11-15T02:09:36;100831.97;;;6.04;100.00
65190;BME280;51777;53.570;9.984;2022-11-15T02:12:03;100828.59;;;6.03;100.00
65190;BME280;51777;53.570;9.984;2022-11-15T02:14:29;100823.59;;;6.02;100.00
65190;BME280;51777;53.570;9.984;2022-11-15T02:17:35;100826.28;;;6.00;100.00
65190;BME280;51777;53.570;9.984;2022-11-15T02:25:38;100834.78;;;6.01;100.00
65190;BME280;51777;53.570;9.984;2022-11-15T02:30:53;100831.97;;;6.04;100.00
65190;BME280;51777;53.570;9.984;2022-11-15T02:33:28;100830.94;;;6.06;100.00
65190;BME280;51777;53.570;9.984;2022-11-15T02:36:01;100819.97;;;6.04;100.00
65190;BME280;51777;53.570;9.984;2022-11-15T02:41:08;100805.75;;;6.00;100.00
65190;BME280;51777;53.570;9.984;2022-11-15T02:43:51;100810.06;;;6.00;100.00
65190;BME280;51777;53.570;9.984;2022-11-15T02:46:35;100821.25;;;5.99;100.00
65190;BME280;51777;53.570;9.984;2022-11-15T02:49:28;100808.66;;;5.96;100.00
65190;BME280;51777;53.570;9.984;2022-11-15T02:51:55;100808.66;;;5.96;100.00
65190;BME280;51777;53.570;9.984;2022-11-15T02:54:26;100806.09;;;5.96;100.00
65190;BME280;51777;53.570;9.984;2022-11-15T02:56:55;100807.94;;;5.94;100.00
65190;BME280;51777;53.570;9.984;2022-11-15T02:59:41;100800.03;;;5.97;100.00
65190;BME280;51777;53.570;9.984;2022-11-15T03:02:31;100800.72;;;5.99;100.00
65190;BME280;51777;53.570;9.984;2022-11-15T03:05:41;100801.41;;;6.01;100.00
65190;BME280;51777;53.570;9.984;2022-11-15T03:13:32;100803.28;;;5.99;100.00
65190;BME280;51777;53.570;9.984;2022-11-15T03:16:09;100805.84;;;5.99;100.00
65190;BME280;51777;53.570;9.984;2022-11-15T03:18:41;100811.00;;;5.99;100.00
65190;BME280;51777;53.570;9.984;2022-11-15T03:21:11;100810.28;;;5.97;100.00
65190;BME280;51777;53.570;9.984;2022-11-15T03:23:39;100814.50;;;5.98;100.00
65190;BME280;51777;53.570;9.984;2022-11-15T03:26:07;100805.84;;;5.99;100.00
65190;BME280;51777;53.570;9.984;2022-11-15T03:28:38;100811.00;;;5.99;100.00
65190;BME280;51777;53.570;9.984;2022-11-15T03:31:07;100811.09;;;5.97;100.00
65190;BME280;51777;53.570;9.984;2022-11-15T03:33:54;100810.28;;;5.97;100.00
65190;BME280;51777;53.570;9.984;2022-11-15T03:36:22;100804.00;;;6.01;100.00
65190;BME280;51777;53.570;9.984;2022-11-15T03:38:53;100800.13;;;6.06;100.00
65190;BME280;51777;53.570;9.984;2022-11-15T03:41:24;100804.13;;;6.10;100.00
65190;BME280;51777;53.570;9.984;2022-11-15T03:43:57;100796.53;;;6.09;100.00
65190;BME280;51777;53.570;9.984;2022-11-15T03:46:32;100789.78;;;6.08;100.00
65190;BME280;51777;53.570;9.984;2022-11-15T03:49:09;100788.13;;;6.07;100.00
65190;BME280;51777;53.570;9.984;2022-11-15T03:51:36;100788.13;;;6.07;100.00
65190;BME280;51777;53.570;9.984;2022-11-15T03:54:03;100790.78;;;6.05;100.00
65190;BME280;51777;53.570;9.984;2022-11-15T03:56:30;100788.13;;;6.07;100.00
65190;BME280;51777;53.570;9.984;2022-11-15T03:58:55;100793.97;;;6.09;100.00
65190;BME280;51777;53.570;9.984;2022-11-15T04:01:21;100796.31;;;6.12;100.00
65190;BME280;51777;53.570;9.984;2022-11-15T04:03:46;100802.84;;;6.16;100.00
65190;BME280;51777;53.570;9.984;2022-11-15T04:06:11;100800.03;;;6.19;100.00
65190;BME280;51777;53.570;9.984;2022-11-15T04:08:37;100800.63;;;6.23;100.00
65190;BME280;51777;53.570;9.984;2022-11-15T04:11:02;100799.47;;;6.27;100.00
65190;BME280;51777;53.570;9.984;2022-11-15T04:13:27;100788.94;;;6.30;100.00
65190;BME280;51777;53.570;9.984;2022-11-15T04:15:53;100793.03;;;6.32;100.00
65190;BME280;51777;53.570;9.984;2022-11-15T04:18:18;100782.53;;;6.35;100.00
65190;BME280;51777;53.570;9.984;2022-11-15T04:20:44;100781.50;;;6.38;100.00
65190;BME280;51777;53.570;9.984;2022-11-15T04:23:28;100781.25;;;6.41;100.00
65190;BME280;51777;53.570;9.984;2022-11-15T04:26:18;100790.25;;;6.46;100.00
65190;BME280;51777;53.570;9.984;2022-11-15T04:28:44;100788.13;;;6.52;100.00
65190;BME280;51777;53.570;9.984;2022-11-15T04:31:29;100790.34;;;6.56;100.00
65190;BME280;51777;53.570;9.984;2022-11-15T04:33:54;100793.50;;;6.60;100.00
65190;BME280;51777;53.570;9.984;2022-11-15T04:36:20;100790.69;;;6.63;100.00
65190;BME280;51777;53.570;9.984;2022-11-15T04:39:04;100795.72;;;6.64;100.00
65190;BME280;51777;53.570;9.984;2022-11-15T04:41:29;100800.16;;;6.73;100.00
65190;BME280;51777;53.570;9.984;2022-11-15T04:43:55;100798.16;;;6.77;100.00
65190;BME280;51777;53.570;9.984;2022-11-15T04:46:21;100806.31;;;6.82;100.00
65190;BME280;51777;53.570;9.984;2022-11-15T04:48:47;100800.94;;;6.85;100.00
65190;BME280;51777;53.570;9.984;2022-11-15T04:51:13;100805.84;;;6.88;100.00
65190;BME280;51777;53.570;9.984;2022-11-15T04:53:38;100796.25;;;6.90;100.00
65190;BME280;51777;53.570;9.984;2022-11-15T04:56:04;100801.94;;;6.94;100.00
65190;BME280;51777;53.570;9.984;2022-11-15T04:58:29;100799.28;;;6.95;100.00
65190;BME280;51777;53.570;9.984;2022-11-15T05:00:55;100798.09;;;6.99;100.00
65190;BME280;51777;53.570;9.984;2022-11-15T05:03:20;100802.06;;;6.92;100.00
65190;BME280;51777;53.570;9.984;2022-11-15T05:06:05;100803.63;;;6.84;100.00
65190;BME280;51777;53.570;9.984;2022-11-15T05:08:30;100802.56;;;6.86;100.00
65190;BME280;51777;53.570;9.984;2022-11-15T05:10:55;100800.69;;;6.88;100.00
65190;BME280;51777;53.570;9.984;2022-11-15T05:13:21;100804.91;;;6.89;100.00
65190;BME280;51777;53.570;9.984;2022-11-15T05:15:46;100803.72;;;6.93;100.00
65190;BME280;51777;53.570;9.984;2022-11-15T05:18:13;100800.44;;;6.91;100.00
65190;BME280;51777;53.570;9.984;2022-11-15T05:20:38;100797.06;;;6.91;100.00
65190;BME280;51777;53.570;9.984;2022-11-15T05:23:04;100789.69;;;6.97;100.00
65190;BME280;51777;53.570;9.984;2022-11-15T05:25:29;100790.25;;;7.01;100.00
65190;BME280;51777;53.570;9.984;2022-11-15T05:27:55;100794.03;;;6.97;100.00
65190;BME280;51777;53.570;9.984;2022-11-15T05:30:20;100790.97;;;7.03;100.00
65190;BME280;51777;53.570;9.984;2022-11-15T05:32:45;100782.19;;;7.05;100.00
65190;BME280;51777;53.570;9.984;2022-11-15T05:35:29;100782.78;;;7.09;100.00
65190;BME280;51777;53.570;9.984;2022-11-15T05:37:56;100784.16;;;7.13;100.00
65190;BME280;51777;53.570;9.984;2022-11-15T05:40:22;100791.50;;;7.18;100.00
65190;BME280;51777;53.570;9.984;2022-11-15T05:42:48;100793.94;;;7.19;100.00
65190;BME280;51777;53.570;9.984;2022-11-15T05:45:14;100786.00;;;7.22;100.00
65190;BME280;51777;53.570;9.984;2022-11-15T05:47:40;100794.97;;;7.28;100.00
65190;BME280;51777;53.570;9.984;2022-11-15T05:50:07;100787.81;;;7.31;100.00
65190;BME280;51777;53.570;9.984;2022-11-15T05:52:35;100790.72;;;7.38;100.00
65190;BME280;51777;53.570;9.984;2022-11-15T05:55:02;100793.03;;;7.41;100.00
65190;BME280;51777;53.570;9.984;2022-11-15T05:57:28;100789.53;;;7.42;100.00
65190;BME280;51777;53.570;9.984;2022-11-15T05:59:54;100793.03;;;7.41;100.00
65190;BME280;51777;53.570;9.984;2022-11-15T06:02:20;100795.38;;;7.44;100.00
65190;BME280;51777;53.570;9.984;2022-11-15T06:04:45;100799.47;;;7.47;100.00
65190;BME280;51777;53.570;9.984;2022-11-15T06:07:10;100799.06;;;7.51;100.00
65190;BME280;51777;53.570;9.984;2022-11-15T06:09:36;100798.59;;;7.57;100.00
65190;BME280;51777;53.570;9.984;2022-11-15T06:12:01;100794.94;;;7.60;100.00
65190;BME280;51777;53.570;9.984;2022-11-15T06:14:27;100808.63;;;7.60;100.00
65190;BME280;51777;53.570;9.984;2022-11-15T06:16:52;100801.16;;;7.57;100.00
65190;BME280;51777;53.570;9.984;2022-11-15T06:19:20;100803.63;;;7.59;100.00
65190;BME280;51777;53.570;9.984;2022-11-15T06:21:48;100809.44;;;7.61;100.00
65190;BME280;51777;53.570;9.984;2022-11-15T06:24:13;100806.19;;;7.59;100.00
65190;BME280;51777;53.570;9.984;2022-11-15T06:26:39;100811.34;;;7.59;100.00
65190;BME280;51777;53.570;9.984;2022-11-15T06:29:04;100802.66;;;7.60;100.00
65190;BME280;51777;53.570;9.984;2022-11-15T06:31:30;100809.44;;;7.61;100.00
65190;BME280;51777;53.570;9.984;2022-11-15T06:33:55;100800.22;;;7.58;100.00
65190;BME280;51777;53.570;9.984;2022-11-15T06:36:21;100814.72;;;7.59;100.00
65190;BME280;51777;53.570;9.984;2022-11-15T06:38:46;100813.53;;;7.63;100.00
65190;BME280;51777;53.570;9.984;2022-11-15T06:41:13;100810.00;;;7.64;100.00
65190;BME280;51777;53.570;9.984;2022-11-15T06:43:40;100813.25;;;7.66;100.00
65190;BME280;51777;53.570;9.984;2022-11-15T06:46:06;100813.53;;;7.63;100.00
65190;BME280;51777;53.570;9.984;2022-11-15T06:48:32;100819.47;;;7.64;100.00
65190;BME280;51777;53.570;9.984;2022-11-15T06:51:00;100818.53;;;7.65;100.00
65190;BME280;51777;53.570;9.984;2022-11-15T06:53:26;100817.84;;;7.63;100.00
65190;BME280;51777;53.570;9.984;2022-11-15T06:55:52;100820.69;;;7.60;100.00
65190;BME280;51777;53.570;9.984;2022-11-15T06:58:18;100824.06;;;7.60;100.00
65190;BME280;51777;53.570;9.984;2022-11-15T07:00:43;100822.91;;;7.53;100.00
65190;BME280;51777;53.570;9.984;2022-11-15T07:03:09;100818.84;;;7.51;100.00
65190;BME280;51777;53.570;9.984;2022-11-15T07:05:36;100822.56;;;7.58;100.00
65190;BME280;51777;53.570;9.984;2022-11-15T07:08:02;100825.97;;;7.58;100.00
65190;BME280;51777;53.570;9.984;2022-11-15T07:10:27;100831.91;;;7.59;100.00
65190;BME280;51777;53.570;9.984;2022-11-15T07:12:54;100830.16;;;7.59;100.00
65190;BME280;51777;53.570;9.984;2022-11-15T07:15:24;100848.84;;;7.61;100.00
65190;BME280;51777;53.570;9.984;2022-11-15T07:17:49;100847.09;;;7.62;100.00
65190;BME280;51777;53.570;9.984;2022-11-15T07:20:16;100846.53;;;7.58;100.00
65190;BME280;51777;53.570;9.984;2022-11-15T07:22:42;100844.41;;;7.63;100.00
65190;BME280;51777;53.570;9.984;2022-11-15T07:25:08;100846.84;;;7.65;100.00
65190;BME280;51777;53.570;9.984;2022-11-15T07:27:34;100840.06;;;7.64;100.00
65190;BME280;51777;53.570;9.984;2022-11-15T07:30:00;100842.03;;;7.72;100.00
65190;BME280;51777;53.570;9.984;2022-11-15T07:32:26;100845.72;;;7.79;100.00
65190;BME280;51777;53.570;9.984;2022-11-15T07:34:51;100844.09;;;7.78;100.00
65190;BME280;51777;53.570;9.984;2022-11-15T07:37:17;100845.97;;;7.76;100.00
65190;BME280;51777;53.570;9.984;2022-11-15T07:39:43;100853.22;;;7.82;100.00
65190;BME280;51777;53.570;9.984;2022-11-15T07:42:08;100852.03;;;7.86;100.00
65190;BME280;51777;53.570;9.984;2022-11-15T07:44:53;100854.06;;;7.92;100.00
65190;BME280;51777;53.570;9.984;2022-11-15T07:47:18;100848.94;;;7.92;100.00
65190;BME280;51777;53.570;9.984;2022-11-15T07:49:44;100844.38;;;7.95;100.00
65190;BME280;51777;53.570;9.984;2022-11-15T07:52:11;100841.19;;;7.92;100.00
65190;BME280;51777;53.570;9.984;2022-11-15T07:54:37;100843.56;;;7.95;100.00
65190;BME280;51777;53.570;9.984;2022-11-15T07:57:02;100845.72;;;8.00;100.00
65190;BME280;51777;53.570;9.984;2022-11-15T07:59:28;100846.16;;;8.05;100.00
65190;BME280;51777;53.570;9.984;2022-11-15T08:01:53;100849.31;;;8.08;100.00
65190;BME280;51777;53.570;9.984;2022-11-15T08:04:18;100838.75;;;8.11;100.00
65190;BME280;51777;53.570;9.984;2022-11-15T08:06:44;100841.72;;;8.07;100.00
65190;BME280;51777;53.570;9.984;2022-11-15T08:09:09;100844.03;;;8.10;100.00
65190;BME280;51777;53.570;9.984;2022-11-15T08:11:35;100843.91;;;8.11;100.00
65190;BME280;51777;53.570;9.984;2022-11-15T08:14:00;100835.50;;;8.09;100.00
65190;BME280;51777;53.570;9.984;2022-11-15T08:16:25;100844.59;;;8.13;100.00
65190;BME280;51777;53.570;9.984;2022-11-15T08:18:51;100838.75;;;8.11;100.00
65190;BME280;51777;53.570;9.984;2022-11-15T08:21:20;100834.69;;;8.09;100.00
65190;BME280;51777;53.570;9.984;2022-11-15T08:23:46;100837.81;;;8.12;100.00
65190;BME280;51777;53.570;9.984;2022-11-15T08:26:12;100836.88;;;8.13;100.00
65190;BME280;51777;53.570;9.984;2022-11-15T08:28:37;100835.09;;;8.14;100.00
65190;BME280;51777;53.570;9.984;2022-11-15T08:31:03;100832.13;;;8.18;100.00
65190;BME280;51777;53.570;9.984;2022-11-15T08:33:29;100829.34;;;8.21;100.00
65190;BME280;51777;53.570;9.984;2022-11-15T08:36:01;100823.78;;;8.26;100.00
65190;BME280;51777;53.570;9.984;2022-11-15T08:38:27;100831.84;;;8.33;100.00
65190;BME280;51777;53.570;9.984;2022-11-15T08:41:04;100824.00;;;8.34;100.00
65190;BME280;51777;53.570;9.984;2022-11-15T08:43:29;100837.44;;;8.38;100.00
65190;BME280;51777;53.570;9.984;2022-11-15T08:45:56;100839.50;;;8.44;100.00
65190;BME280;51777;53.570;9.984;2022-11-15T08:48:22;100848.59;;;8.48;100.00
65190;BME280;51777;53.570;9.984;2022-11-15T08:50:47;100853.75;;;8.48;100.00
65190;BME280;51777;53.570;9.984;2022-11-15T08:53:13;100844.66;;;8.44;100.00
65190;BME280;51777;53.570;9.984;2022-11-15T08:55:39;100856.59;;;8.45;100.00
65190;BME280;51777;53.570;9.984;2022-11-15T08:58:05;100848.59;;;8.48;100.00
65190;BME280;51777;53.570;9.984;2022-11-15T09:00:30;100844.69;;;8.53;100.00
65190;BME280;51777;53.570;9.984;2022-11-15T09:02:56;100841.28;;;8.53;100.00
65190;BME280;51777;53.570;9.984;2022-11-15T09:05:21;100839.28;;;8.57;100.00
65190;BME280;51777;53.570;9.984;2022-11-15T09:07:46;100842.28;;;8.62;100.00
65190;BME280;51777;53.570;9.984;2022-11-15T09:10:12;100834.16;;;8.66;100.00
65190;BME280;51777;53.570;9.984;2022-11-15T09:12:38;100843.94;;;8.72;100.00
65190;BME280;51777;53.570;9.984;2022-11-15T09:15:05;100845.03;;;8.79;100.00
65190;BME280;51777;53.570;9.984;2022-11-15T09:17:30;100844.09;;;8.80;100.00
65190;BME280;51777;53.570;9.984;2022-11-15T09:19:56;100844.25;;;8.89;100.00
65190;BME280;51777;53.570;9.984;2022-11-15T09:22:21;100841.03;;;8.96;100.00
65190;BME280;51777;53.570;9.984;2022-11-15T09:24:47;100849.84;;;9.03;100.00
65190;BME280;51777;53.570;9.984;2022-11-15T09:27:12;100846.34;;;9.14;100.00
65190;BME280;51777;53.570;9.984;2022-11-15T09:29:38;100843.25;;;9.20;100.00
65190;BME280;51777;53.570;9.984;2022-11-15T09:32:04;100833.75;;;9.30;100.00
65190;BME280;51777;53.570;9.984;2022-11-15T09:34:29;100837.41;;;9.37;100.00
65190;BME280;51777;53.570;9.984;2022-11-15T09:36:54;100834.28;;;9.53;100.00
65190;BME280;51777;53.570;9.984;2022-11-15T09:39:20;100841.75;;;9.66;100.00
65190;BME280;51777;53.570;9.984;2022-11-15T09:50:10;100838.03;;;10.07;100.00
65190;BME280;51777;53.570;9.984;2022-11-15T09:52:44;100847.13;;;10.01;100.00
65190;BME280;51777;53.570;9.984;2022-11-15T09:55:13;100844.56;;;10.01;100.00
65190;BME280;51777;53.570;9.984;2022-11-15T09:57:54;100845.94;;;9.96;100.00
65190;BME280;51777;53.570;9.984;2022-11-15T10:00:34;100850.81;;;9.99;100.00
65190;BME280;51777;53.570;9.984;2022-11-15T10:05:42;100854.84;;;10.21;100.00
65190;BME280;51777;53.570;9.984;2022-11-15T10:11:12;100849.16;;;10.27;100.00
65190;BME280;51777;53.570;9.984;2022-11-15T10:13:43;100840.84;;;10.33;100.00
65190;BME280;51777;53.570;9.984;2022-11-15T10:16:28;100835.38;;;10.36;100.00
65190;BME280;51777;53.570;9.984;2022-11-15T10:24:43;100833.72;;;10.45;100.00
65190;BME280;51777;53.570;9.984;2022-11-15T10:27:15;100830.03;;;10.47;100.00
65190;BME280;51777;53.570;9.984;2022-11-15T10:29:46;100829.47;;;10.53;100.00
65190;BME280;51777;53.570;9.984;2022-11-15T10:32:14;100819.69;;;10.47;100.00
65190;BME280;51777;53.570;9.984;2022-11-15T10:34:40;100820.13;;;10.43;100.00
65190;BME280;51777;53.570;9.984;2022-11-15T10:37:06;100819.44;;;10.41;100.00
65190;BME280;51777;53.570;9.984;2022-11-15T10:39:32;100812.50;;;10.41;100.00
65190;BME280;51777;53.570;9.984;2022-11-15T10:42:15;100810.47;;;10.45;100.00
65190;BME280;51777;53.570;9.984;2022-11-15T10:44:42;100816.44;;;10.45;100.00
65190;BME280;51777;53.570;9.984;2022-11-15T10:47:31;100810.47;;;10.45;100.00
65190;BME280;51777;53.570;9.984;2022-11-15T10:50:06;100808.69;;;10.45;100.00
65190;BME280;51777;53.570;9.984;2022-11-15T10:52:34;100813.72;;;10.47;100.00
65190;BME280;51777;53.570;9.984;2022-11-15T10:57:49;100795.19;;;10.51;100.00
65190;BME280;51777;53.570;9.984;2022-11-15T11:02:59;100792.09;;;10.66;100.00
65190;BME280;51777;53.570;9.984;2022-11-15T11:11:00;100781.31;;;10.80;100.00
65190;BME280;51777;53.570;9.984;2022-11-15T11:13:39;100784.25;;;10.85;100.00
65190;BME280;51777;53.570;9.984;2022-11-15T11:24:47;100781.50;;;10.86;100.00
65190;BME280;51777;53.570;9.984;2022-11-15T11:28:05;100772.56;;;10.99;100.00
65190;BME280;51777;53.570;9.984;2022-11-15T11:33:13;100770.38;;;11.04;100.00
65190;BME280;51777;53.570;9.984;2022-11-15T11:43:51;100758.09;;;11.06;100.00
65190;BME280;51777;53.570;9.984;2022-11-15T11:49:10;100752.81;;;11.15;100.00
65190;BME280;51777;53.570;9.984;2022-11-15T11:54:20;100756.91;;;11.18;100.00
65190;BME280;51777;53.570;9.984;2022-11-15T11:56:48;100757.19;;;11.15;100.00
65190;BME280;51777;53.570;9.984;2022-11-15T11:59:37;100754.47;;;11.16;100.00
65190;BME280;51777;53.570;9.984;2022-11-15T12:02:21;100743.16;;;11.17;100.00
65190;BME280;51777;53.570;9.984;2022-11-15T12:04:53;100747.72;;;11.24;100.00
65190;BME280;51777;53.570;9.984;2022-11-15T12:07:25;100747.97;;;11.30;100.00
65190;BME280;51777;53.570;9.984;2022-11-15T12:10:03;100744.06;;;11.52;100.00
65190;BME280;51777;53.570;9.984;2022-11-15T12:12:31;100739.00;;;11.68;100.00
65190;BME280;51777;53.570;9.984;2022-11-15T12:17:34;100740.00;;;12.01;100.00
65190;BME280;51777;53.570;9.984;2022-11-15T12:20:16;100741.84;;;12.09;100.00
65190;BME280;51777;53.570;9.984;2022-11-15T12:22:47;100737.66;;;12.16;100.00
65190;BME280;51777;53.570;9.984;2022-11-15T12:30:44;100721.03;;;12.35;100.00
65190;BME280;51777;53.570;9.984;2022-11-15T12:33:31;100721.88;;;12.52;100.00
65190;BME280;51777;53.570;9.984;2022-11-15T12:35:59;100720.94;;;12.61;100.00
65190;BME280;51777;53.570;9.984;2022-11-15T12:41:18;100722.56;;;12.54;100.00
65190;BME280;51777;53.570;9.984;2022-11-15T12:43:48;100713.81;;;12.55;100.00
65190;BME280;51777;53.570;9.984;2022-11-15T12:46:23;100711.22;;;12.55;100.00
65190;BME280;51777;53.570;9.984;2022-11-15T13:02:41;100697.78;;;12.68;100.00
65190;BME280;51777;53.570;9.984;2022-11-15T13:15:31;100682.88;;;12.78;100.00
65190;BME280;51777;53.570;9.984;2022-11-15T13:17:58;100675.72;;;12.63;100.00
65190;BME280;51777;53.570;9.984;2022-11-15T13:20:32;100678.28;;;12.63;100.00
65190;BME280;51777;53.570;9.984;2022-11-15T13:28:37;100667.28;;;12.70;100.00
65190;BME280;51777;53.570;9.984;2022-11-15T13:31:35;100668.75;;;12.72;100.00
65190;BME280;51777;53.570;9.984;2022-11-15T13:34:29;100665.81;;;12.75;100.00
65190;BME280;51777;53.570;9.984;2022-11-15T13:36:58;100667.31;;;12.78;100.00
65190;BME280;51777;53.570;9.984;2022-11-15T13:39:32;100666.47;;;12.77;100.00
65190;BME280;51777;53.570;9.984;2022-11-15T13:41:58;100655.44;;;12.75;100.00
65190;BME280;51777;53.570;9.984;2022-11-15T13:44:29;100642.00;;;12.72;100.00
65190;BME280;51777;53.570;9.984;2022-11-15T13:49:34;100644.91;;;12.60;100.00
65190;BME280;51777;53.570;9.984;2022-11-15T13:52:05;100636.16;;;12.70;100.00
65190;BME280;51777;53.570;9.984;2022-11-15T13:54:40;100635.00;;;12.64;100.00
65190;BME280;51777;53.570;9.984;2022-11-15T13:57:20;100632.59;;;12.71;100.00
65190;BME280;51777;53.570;9.984;2022-11-15T14:00:01;100629.50;;;12.59;100.00
65190;BME280;51777;53.570;9.984;2022-11-15T14:02:33;100637.13;;;12.60;100.00
65190;BME280;51777;53.570;9.984;2022-11-15T14:05:05;100627.88;;;12.50;100.00
65190;BME280;51777;53.570;9.984;2022-11-15T14:07:39;100639.56;;;12.62;100.00
65190;BME280;51777;53.570;9.984;2022-11-15T14:10:34;100637.94;;;12.69;100.00
65190;BME280;51777;53.570;9.984;2022-11-15T14:13:03;100640.19;;;12.64;100.00
65190;BME280;51777;53.570;9.984;2022-11-15T14:15:37;100649.31;;;12.68;100.00
65190;BME280;51777;53.570;9.984;2022-11-15T14:18:03;100633.09;;;12.66;100.00
65190;BME280;51777;53.570;9.984;2022-11-15T14:20:32;100630.47;;;12.58;100.00
65190;BME280;51777;53.570;9.984;2022-11-15T14:23:03;100628.22;;;12.55;100.00
65190;BME280;51777;53.570;9.984;2022-11-15T14:25:33;100628.69;;;12.50;100.00
65190;BME280;51777;53.570;9.984;2022-11-15T14:30:45;100616.00;;;12.23;100.00
65190;BME280;51777;53.570;9.984;2022-11-15T14:35:54;100616.50;;;12.18;100.00
65190;BME280;51777;53.570;9.984;2022-11-15T14:38:21;100621.97;;;12.15;100.00
65190;BME280;51777;53.570;9.984;2022-11-15T14:40:47;100620.34;;;12.14;100.00
65190;BME280;51777;53.570;9.984;2022-11-15T14:43:13;100620.34;;;12.14;100.00
65190;BME280;51777;53.570;9.984;2022-11-15T14:45:42;100627.63;;;12.11;100.00
65190;BME280;51777;53.570;9.984;2022-11-15T14:48:07;100622.94;;;12.06;100.00
65190;BME280;51777;53.570;9.984;2022-11-15T14:50:36;100623.56;;;12.00;100.00
65190;BME280;51777;53.570;9.984;2022-11-15T14:53:02;100624.19;;;11.94;100.00
65190;BME280;51777;53.570;9.984;2022-11-15T14:55:33;100616.56;;;11.84;100.00
65190;BME280;51777;53.570;9.984;2022-11-15T14:58:05;100611.03;;;11.79;100.00
65190;BME280;51777;53.570;9.984;2022-11-15T15:00:33;100617.59;;;11.73;100.00
65190;BME280;51777;53.570;9.984;2022-11-15T15:02:59;100609.50;;;11.68;100.00